Time;durP1;ratioP1;P1;durP2;ratioP2;P2;SDS_P1;SDS_P2;PMS_P1;PMS_P2;Temp;Humidity;BMP_temperature;BMP_pressure;BME280_temperature;BME280_humidity;BME280_pressure;Samples;Min_cycle;Max_cycle;Signal;HPM_P1;HPM_P2
2023/05/20 00:01:56;;;;;;;7.25;4.88;;;;;;;15.35;76.29;101611.50;4992699;28;20516;-84
2023/05/20 00:04:22;;;;;;;11.68;5.03;;;;;;;15.46;76.08;101642.22;4976207;28;20484;-83
2023/05/20 00:06:47;;;;;;;9.77;4.53;;;;;;;15.38;76.23;101626.16;4976283;28;20034;-84
2023/05/20 00:09:13;;;;;;;5.38;4.28;;;;;;;15.37;76.43;101619.25;4992590;28;20081;-84
2023/05/20 00:11:38;;;;;;;11.48;4.43;;;;;;;15.25;77.35;101609.47;4976064;28;20034;-83
2023/05/20 00:14:04;;;;;;;7.30;4.38;;;;;;;15.26;77.48;101629.41;4992827;28;20034;-83
2023/05/20 00:16:29;;;;;;;5.88;4.20;;;;;;;15.32;77.30;101632.50;4976368;28;20484;-84
2023/05/20 00:18:55;;;;;;;6.68;4.93;;;;;;;15.29;77.50;101614.44;4993950;28;20038;-83
2023/05/20 00:21:21;;;;;;;9.23;5.50;;;;;;;15.32;77.88;101626.47;4976335;28;20022;-85
2023/05/20 00:23:46;;;;;;;10.38;5.60;;;;;;;15.27;77.30;101607.63;4976207;28;20026;-84
2023/05/20 00:26:12;;;;;;;8.20;5.20;;;;;;;15.22;77.82;101620.88;4993291;28;20054;-84
2023/05/20 00:28:37;;;;;;;7.32;4.35;;;;;;;15.25;77.84;101625.13;4991379;28;20034;-84
2023/05/20 00:31:03;;;;;;;7.75;4.55;;;;;;;15.32;77.90;101621.25;4992267;28;20084;-83
2023/05/20 00:33:29;;;;;;;8.15;4.95;;;;;;;15.15;78.60;101609.13;4991965;28;20633;-83
2023/05/20 00:35:54;;;;;;;8.30;5.20;;;;;;;15.19;78.30;101626.28;4975863;28;20050;-84
2023/05/20 00:38:20;;;;;;;8.48;4.90;;;;;;;15.11;78.63;101626.66;4992085;28;20030;-83
2023/05/20 00:40:45;;;;;;;8.13;4.40;;;;;;;14.84;78.88;101595.03;4975751;28;20030;-83
2023/05/20 00:43:11;;;;;;;9.10;5.72;;;;;;;14.99;79.15;101616.03;4991720;28;20465;-84
2023/05/20 00:45:37;;;;;;;7.72;5.22;;;;;;;14.87;79.67;101610.53;4991962;28;20026;-84
2023/05/20 00:48:02;;;;;;;8.65;5.53;;;;;;;14.93;80.35;101620.63;4975704;28;20038;-84
2023/05/20 00:50:28;;;;;;;7.60;4.78;;;;;;;14.93;80.26;101606.75;4991648;28;20058;-84
2023/05/20 00:52:54;;;;;;;7.97;4.47;;;;;;;14.96;80.42;101609.22;4991867;28;20117;-84
2023/05/20 00:55:20;;;;;;;9.98;5.97;;;;;;;14.92;80.70;101612.91;4975328;28;20023;-84
2023/05/20 00:57:46;;;;;;;10.38;5.15;;;;;;;14.95;80.74;101615.38;4975560;28;20042;-83
2023/05/20 01:00:12;;;;;;;7.35;4.93;;;;;;;14.92;80.71;101616.34;4959494;28;20101;-83
2023/05/20 01:02:38;;;;;;;8.50;4.78;;;;;;;14.76;80.65;101581.59;4991674;28;20026;-83
2023/05/20 01:05:04;;;;;;;8.60;5.60;;;;;;;14.84;80.58;101602.03;5008029;28;20077;-83
2023/05/20 01:07:29;;;;;;;9.85;6.40;;;;;;;14.94;80.99;101605.84;4975348;28;20422;-84
2023/05/20 01:09:55;;;;;;;8.90;5.35;;;;;;;15.10;80.93;101624.97;4975071;28;20026;-84
2023/05/20 01:12:30;;;;;;;8.93;6.05;;;;;;;15.03;80.23;101620.16;4975150;28;20084;-83
2023/05/20 01:15:01;;;;;;;9.05;6.15;;;;;;;14.95;80.07;101611.91;4991467;28;20034;-84
2023/05/20 01:17:28;;;;;;;9.88;6.68;;;;;;;14.84;80.58;101607.22;4975817;28;20085;-83
2023/05/20 01:19:53;;;;;;;11.02;6.78;;;;;;;14.81;80.85;101597.81;4959263;28;20032;-83
2023/05/20 01:22:26;;;;;;;12.73;7.55;;;;;;;14.80;81.05;101588.31;4975148;28;20035;-84
2023/05/20 01:24:52;;;;;;;12.15;7.63;;;;;;;14.88;81.46;101585.31;4975432;28;20113;-84
2023/05/20 01:27:19;;;;;;;10.48;6.28;;;;;;;14.97;81.10;101590.06;4974914;28;20111;-84
2023/05/20 01:29:44;;;;;;;11.43;6.75;;;;;;;14.96;81.40;101593.59;4975227;28;20030;-83
2023/05/20 01:32:13;;;;;;;10.07;5.57;;;;;;;14.89;81.13;101584.41;4974739;28;20030;-83
2023/05/20 01:34:40;;;;;;;9.25;5.57;;;;;;;14.99;80.84;101603.84;4974996;28;20157;-83
2023/05/20 01:37:05;;;;;;;10.45;6.68;;;;;;;14.95;80.67;101602.34;4958923;28;21415;-83
2023/05/20 01:39:32;;;;;;;10.35;6.68;;;;;;;14.86;81.18;101598.44;4973497;28;20038;-83
2023/05/20 01:41:57;;;;;;;10.20;5.97;;;;;;;14.89;81.33;101600.88;4992051;28;20026;-83
2023/05/20 01:44:23;;;;;;;10.55;6.28;;;;;;;14.76;80.72;101580.75;4974409;28;20041;-84
2023/05/20 01:46:49;;;;;;;7.65;5.20;;;;;;;14.82;81.31;101593.44;4990855;28;20041;-84
2023/05/20 01:49:14;;;;;;;12.52;5.80;;;;;;;14.68;80.96;101564.66;4990729;28;20080;-84
2023/05/20 01:51:40;;;;;;;12.48;5.88;;;;;;;14.79;80.74;101596.22;4992239;28;20038;-84
2023/05/20 01:54:05;;;;;;;11.15;6.55;;;;;;;14.66;80.70;101584.75;4990429;28;20088;-83
2023/05/20 01:56:31;;;;;;;10.23;5.60;;;;;;;14.66;81.31;101587.34;4974247;28;20081;-85
2023/05/20 01:58:56;;;;;;;7.97;5.35;;;;;;;14.57;81.11;101586.91;4990746;28;20393;-83
2023/05/20 02:01:22;;;;;;;8.02;5.32;;;;;;;14.44;81.52;101588.38;4990632;28;20429;-84
2023/05/20 02:03:47;;;;;;;10.38;5.93;;;;;;;14.28;81.75;101575.28;4974526;28;20031;-83
2023/05/20 02:06:12;;;;;;;7.10;5.10;;;;;;;14.26;81.92;101568.47;4991992;28;20114;-84
2023/05/20 02:08:38;;;;;;;9.07;5.88;;;;;;;14.35;81.57;101591.44;4990042;28;20034;-83
2023/05/20 02:11:04;;;;;;;9.07;5.20;;;;;;;14.28;81.36;101592.66;4990235;28;20041;-83
2023/05/20 02:13:29;;;;;;;7.38;5.32;;;;;;;14.17;81.76;101590.59;4974717;28;20061;-83
2023/05/20 02:15:55;;;;;;;11.52;5.95;;;;;;;14.20;82.27;101600.84;4990109;28;20030;-84
2023/05/20 02:18:21;;;;;;;8.00;5.15;;;;;;;14.35;82.03;101584.50;4974447;28;20034;-84
2023/05/20 02:20:46;;;;;;;9.55;5.65;;;;;;;14.37;81.76;101586.19;5006584;28;20022;-83
2023/05/20 02:23:12;;;;;;;9.85;5.35;;;;;;;14.35;82.02;101587.09;4991058;28;20085;-85
2023/05/20 02:25:37;;;;;;;8.90;5.88;;;;;;;14.37;81.53;101593.97;4957999;28;20030;-83
2023/05/20 02:28:04;;;;;;;11.93;5.32;;;;;;;14.31;82.20;101600.31;4990279;28;20030;-83
2023/05/20 02:30:30;;;;;;;8.02;5.28;;;;;;;14.31;82.54;101600.31;5006543;28;20026;-83
2023/05/20 02:32:56;;;;;;;12.95;7.00;;;;;;;14.24;82.44;101591.13;4974110;28;20439;-83
2023/05/20 02:35:22;;;;;;;8.60;5.80;;;;;;;14.21;82.23;101584.31;4991044;28;20066;-83
2023/05/20 02:37:47;;;;;;;8.13;5.32;;;;;;;14.28;82.28;101605.69;4973862;28;20170;-83
2023/05/20 02:40:13;;;;;;;7.57;5.45;;;;;;;14.23;81.90;101586.84;4989942;28;20030;-83
2023/05/20 02:42:39;;;;;;;7.70;5.10;;;;;;;14.37;81.76;101615.66;4973928;28;20477;-83
2023/05/20 02:45:05;;;;;;;7.70;5.82;;;;;;;14.11;82.27;101561.41;4974080;28;20493;-85
2023/05/20 02:47:31;;;;;;;10.10;5.65;;;;;;;14.40;81.97;101589.47;4973831;28;20411;-83
2023/05/20 02:49:56;;;;;;;10.98;6.38;;;;;;;14.32;82.29;101599.41;4974494;28;20038;-83
2023/05/20 02:52:22;;;;;;;8.30;5.07;;;;;;;14.26;83.10;101602.31;4977606;28;20037;-83
2023/05/20 02:54:47;;;;;;;8.32;5.55;;;;;;;14.19;82.77;101613.94;4977826;28;20023;-84
2023/05/20 02:57:13;;;;;;;12.27;5.97;;;;;;;14.07;83.88;101613.63;4977377;28;20026;-83
2023/05/20 02:59:38;;;;;;;10.88;6.68;;;;;;;14.07;84.83;101616.22;4993903;28;20030;-83
2023/05/20 03:02:04;;;;;;;9.95;5.95;;;;;;;13.91;84.88;101581.44;4961498;28;20047;-84
2023/05/20 03:04:30;;;;;;;11.00;6.80;;;;;;;14.16;84.77;101617.53;4977601;28;20100;-85
2023/05/20 03:06:56;;;;;;;11.32;5.45;;;;;;;14.10;84.86;101616.97;4993679;28;20034;-84
2023/05/20 03:09:23;;;;;;;13.20;6.78;;;;;;;14.07;85.56;101613.63;4977455;28;20113;-83
2023/05/20 03:11:49;;;;;;;8.95;5.85;;;;;;;14.01;86.50;101603.50;4993851;28;20093;-83
2023/05/20 03:14:14;;;;;;;10.10;6.82;;;;;;;14.06;86.05;101622.34;4977436;28;20455;-85
2023/05/20 03:16:40;;;;;;;10.30;5.88;;;;;;;14.13;86.11;101627.22;4994805;28;20030;-85
2023/05/20 03:19:06;;;;;;;9.02;5.38;;;;;;;14.19;85.55;101630.41;4977418;28;20061;-83
2023/05/20 03:21:31;;;;;;;9.43;6.05;;;;;;;14.16;85.13;101627.94;4960999;28;20484;-83
2023/05/20 03:23:56;;;;;;;10.07;5.82;;;;;;;14.19;84.83;101619.13;4993608;28;20404;-85
2023/05/20 03:26:22;;;;;;;15.55;5.28;;;;;;;14.30;84.64;101603.84;4993430;28;20030;-84
2023/05/20 03:28:48;;;;;;;8.98;6.32;;;;;;;14.36;84.33;101619.16;4977180;28;20026;-85
2023/05/20 03:31:13;;;;;;;9.70;6.30;;;;;;;14.37;84.25;101631.28;4977492;28;20397;-84
2023/05/20 03:33:38;;;;;;;10.80;6.03;;;;;;;14.33;83.70;101624.50;4960986;28;20046;-83
2023/05/20 03:36:05;;;;;;;15.98;6.40;;;;;;;14.40;82.90;101631.09;4976634;28;20500;-83
2023/05/20 03:38:30;;;;;;;9.43;6.10;;;;;;;14.44;82.53;101627.44;4961121;28;20121;-83
2023/05/20 03:40:56;;;;;;;9.20;5.30;;;;;;;14.34;82.35;101634.84;4993222;28;20550;-84
2023/05/20 03:43:21;;;;;;;10.38;5.53;;;;;;;14.28;82.75;101622.16;4993142;28;20510;-85
2023/05/20 03:45:47;;;;;;;11.25;6.80;;;;;;;14.21;82.41;101604.28;4993356;28;20419;-85
2023/05/20 03:48:12;;;;;;;10.07;5.97;;;;;;;14.29;82.06;101630.78;4976489;28;20038;-85
2023/05/20 03:50:38;;;;;;;13.07;8.45;;;;;;;14.06;82.38;101619.75;4992862;28;20037;-84
2023/05/20 03:53:03;;;;;;;29.85;10.93;;;;;;;14.12;83.16;101630.75;4976577;28;20053;-83
2023/05/20 03:55:28;;;;;;;17.35;11.23;;;;;;;14.04;82.94;101608.53;4960493;28;20041;-86
2023/05/20 03:57:54;;;;;;;14.48;10.02;;;;;;;14.03;82.64;101612.06;4992634;28;20027;-83
2023/05/20 04:00:19;;;;;;;14.02;9.70;;;;;;;14.00;83.04;101601.81;4976422;28;20476;-83
2023/05/20 04:02:45;;;;;;;11.45;7.88;;;;;;;14.00;83.24;101609.59;4975521;28;20046;-83
2023/05/20 04:05:11;;;;;;;12.45;8.13;;;;;;;14.13;83.17;101625.47;4976319;28;20030;-83
2023/05/20 04:07:36;;;;;;;13.02;7.95;;;;;;;13.96;83.39;101608.09;4976375;28;20475;-83
2023/05/20 04:10:03;;;;;;;10.32;7.05;;;;;;;14.12;82.76;101613.38;4976476;28;20405;-83
2023/05/20 04:12:29;;;;;;;9.15;6.18;;;;;;;14.17;82.17;101602.75;4976528;28;20026;-86
2023/05/20 04:15:01;;;;;;;9.10;6.97;;;;;;;14.35;82.07;101622.66;4976546;28;20030;-84
2023/05/20 04:17:29;;;;;;;10.75;6.32;;;;;;;14.35;81.83;101623.53;4976406;28;20041;-83
2023/05/20 04:19:58;;;;;;;9.80;5.95;;;;;;;14.34;81.87;101610.56;4976245;28;20026;-83
2023/05/20 04:22:25;;;;;;;9.45;6.30;;;;;;;14.36;81.40;101621.78;4992386;28;20026;-84
2023/05/20 04:24:50;;;;;;;11.65;6.43;;;;;;;14.46;80.99;101636.06;4976368;28;20041;-83
2023/05/20 04:27:16;;;;;;;10.13;6.20;;;;;;;14.56;81.17;101631.25;5008309;28;20031;-83
2023/05/20 04:29:44;;;;;;;10.93;5.88;;;;;;;14.53;80.77;101632.22;4959983;28;20037;-83
2023/05/20 04:32:12;;;;;;;9.52;5.80;;;;;;;14.55;80.45;101634.72;4976411;28;20121;-83
2023/05/20 04:34:37;;;;;;;10.73;6.65;;;;;;;14.63;80.31;101643.84;4992013;28;20178;-84
2023/05/20 04:37:03;;;;;;;13.75;7.18;;;;;;;14.63;80.31;101638.66;4975966;28;20058;-84
2023/05/20 04:39:29;;;;;;;14.57;7.20;;;;;;;14.68;80.57;101645.41;4959777;28;20027;-84
2023/05/20 04:41:54;;;;;;;15.07;6.53;;;;;;;14.59;80.95;101633.69;4959684;28;20038;-83
2023/05/20 04:44:19;;;;;;;10.55;7.03;;;;;;;14.70;80.80;101636.59;4991998;28;20484;-83
2023/05/20 04:46:45;;;;;;;13.85;7.10;;;;;;;14.80;80.68;101635.22;4991975;28;20030;-83
2023/05/20 04:49:11;;;;;;;10.23;6.35;;;;;;;14.80;80.79;101635.22;4975113;28;20030;-83
2023/05/20 04:51:36;;;;;;;19.60;7.43;;;;;;;14.74;80.27;101619.88;4975600;28;20022;-86
2023/05/20 04:54:02;;;;;;;8.45;6.07;;;;;;;14.90;79.97;101628.63;5008211;28;20023;-85
2023/05/20 04:56:27;;;;;;;16.38;8.15;;;;;;;14.96;79.70;101637.88;5008136;28;20026;-84
2023/05/20 04:58:53;;;;;;;13.95;6.75;;;;;;;14.94;79.63;101621.47;4975516;28;20105;-84
2023/05/20 05:01:18;;;;;;;15.00;7.35;;;;;;;15.15;79.17;101640.41;4959418;28;20084;-83
2023/05/20 05:03:44;;;;;;;11.27;7.13;;;;;;;15.35;78.65;101652.38;4992900;28;20034;-83
2023/05/20 05:06:09;;;;;;;10.88;7.45;;;;;;;15.21;79.31;101630.47;4991633;28;20484;-83
2023/05/20 05:08:35;;;;;;;18.45;7.95;;;;;;;15.32;79.02;101647.31;4975281;28;20034;-84
2023/05/20 05:11:00;;;;;;;12.65;7.38;;;;;;;15.27;78.89;101634.53;4992709;28;20037;-84
2023/05/20 05:13:26;;;;;;;15.32;6.95;;;;;;;15.35;78.74;101634.13;4990976;28;20089;-83
2023/05/20 05:15:58;;;;;;;16.95;7.78;;;;;;;15.55;78.67;101654.78;4991538;28;20117;-83
2023/05/20 05:18:23;;;;;;;;;;;;;;;15.66;78.68;101649.84;4976078;28;20038;-83
2023/05/20 05:21:03;;;;;;;14.15;7.32;;;;;;;15.86;78.15;101653.16;4991290;28;19922;-83
2023/05/20 05:23:29;;;;;;;10.85;6.40;;;;;;;15.94;77.44;101662.25;4975031;28;20085;-83
2023/05/20 05:25:55;;;;;;;10.30;6.20;;;;;;;15.90;76.99;101634.63;4974829;28;20507;-83
2023/05/20 05:28:20;;;;;;;14.57;6.90;;;;;;;16.15;76.65;101665.44;4992000;28;20030;-83
2023/05/20 05:30:46;;;;;;;17.83;7.40;;;;;;;15.97;77.25;101637.75;4974840;28;20066;-84
2023/05/20 05:33:13;;;;;;;10.50;7.07;;;;;;;16.15;77.08;101639.34;4990980;28;20081;-83
2023/05/20 05:35:40;;;;;;;15.07;7.60;;;;;;;16.33;77.17;101648.75;4991182;28;20051;-83
2023/05/20 05:38:06;;;;;;;11.23;7.57;;;;;;;16.38;76.56;101632.81;4991476;28;20066;-84
2023/05/20 05:40:31;;;;;;;13.10;7.15;;;;;;;16.56;75.88;101643.97;5006964;28;20044;-84
2023/05/20 05:42:56;;;;;;;12.70;7.38;;;;;;;16.69;75.81;101649.34;4958605;28;20073;-84
2023/05/20 05:45:22;;;;;;;12.40;6.60;;;;;;;16.59;76.03;101623.72;4958294;28;20038;-84
2023/05/20 05:47:47;;;;;;;12.32;6.63;;;;;;;16.86;75.24;101643.97;4974262;28;20484;-83
2023/05/20 05:50:13;;;;;;;12.30;7.93;;;;;;;16.96;75.85;101652.94;4958432;28;20384;-83
2023/05/20 05:52:38;;;;;;;9.77;6.55;;;;;;;16.94;75.61;101625.22;4974443;28;20081;-83
2023/05/20 05:55:04;;;;;;;10.75;6.13;;;;;;;17.17;74.99;101649.06;4990698;28;20030;-84
2023/05/20 05:57:29;;;;;;;13.90;7.50;;;;;;;17.14;75.27;101632.72;4958425;28;20092;-83
2023/05/20 05:59:55;;;;;;;10.35;6.32;;;;;;;17.32;74.52;101644.69;4974023;28;20439;-83
2023/05/20 06:02:21;;;;;;;11.80;6.32;;;;;;;17.39;74.47;101645.97;4974154;28;20443;-84
2023/05/20 06:04:46;;;;;;;10.90;5.93;;;;;;;17.47;74.09;101637.66;4974723;28;20022;-84
2023/05/20 06:07:12;;;;;;;10.85;6.30;;;;;;;17.49;74.16;101641.84;4990483;28;20026;-83
2023/05/20 06:09:37;;;;;;;11.60;6.40;;;;;;;17.64;73.21;101655.78;4974214;28;20026;-84
2023/05/20 06:12:03;;;;;;;8.90;5.65;;;;;;;17.76;73.22;101662.03;4974331;28;20058;-83
2023/05/20 06:14:29;;;;;;;11.80;6.78;;;;;;;17.86;73.15;101660.53;4990144;28;20058;-83
2023/05/20 06:16:54;;;;;;;13.10;6.93;;;;;;;17.92;72.42;101660.16;4974428;28;20037;-83
2023/05/20 06:19:20;;;;;;;9.98;6.03;;;;;;;17.92;71.17;101651.47;4990300;28;20026;-84
2023/05/20 06:21:45;;;;;;;12.52;7.10;;;;;;;18.07;71.74;101660.94;4990326;28;20065;-83
2023/05/20 06:24:10;;;;;;;11.43;7.60;;;;;;;17.98;71.68;101636.19;4990235;28;20030;-83
2023/05/20 06:26:36;;;;;;;16.15;6.80;;;;;;;18.15;72.16;101656.06;4973394;28;20026;-83
2023/05/20 06:29:02;;;;;;;13.38;7.43;;;;;;;18.29;71.80;101652.56;4989826;28;20547;-83
2023/05/20 06:31:28;;;;;;;12.25;7.35;;;;;;;18.16;69.98;101641.19;4974094;28;20105;-83
2023/05/20 06:33:54;;;;;;;10.45;6.53;;;;;;;18.23;70.95;101632.00;4991720;28;20030;-83
2023/05/20 06:36:19;;;;;;;12.80;7.38;;;;;;;18.51;71.45;101657.22;4989813;28;20104;-83
2023/05/20 06:38:45;;;;;;;10.38;6.65;;;;;;;18.68;70.37;101656.13;4990230;28;20039;-84
2023/05/20 06:41:10;;;;;;;17.30;7.20;;;;;;;18.66;70.39;101623.94;4973662;28;20026;-84
2023/05/20 06:43:36;;;;;;;9.80;6.38;;;;;;;18.92;69.73;101644.00;5006048;28;20492;-84
2023/05/20 06:46:01;;;;;;;11.10;6.32;;;;;;;19.00;69.22;101654.81;4973908;28;20030;-85
2023/05/20 06:48:27;;;;;;;11.38;6.95;;;;;;;19.11;67.70;101647.06;4973712;28;20035;-85
2023/05/20 06:50:52;;;;;;;9.55;6.53;;;;;;;19.15;68.28;101651.13;4990025;28;20027;-84
2023/05/20 06:53:17;;;;;;;11.15;7.07;;;;;;;19.19;67.63;101623.75;4973802;28;20065;-85
2023/05/20 06:55:43;;;;;;;9.73;6.32;;;;;;;19.49;66.71;101664.56;4973574;28;20085;-84
2023/05/20 06:58:08;;;;;;;12.40;6.65;;;;;;;19.54;66.05;101653.72;4989342;28;20034;-84
2023/05/20 07:00:34;;;;;;;10.57;6.72;;;;;;;19.49;65.17;101647.03;4990318;28;20034;-83
2023/05/20 07:02:59;;;;;;;12.23;6.70;;;;;;;19.55;65.84;101643.09;4973542;28;20508;-83
2023/05/20 07:05:26;;;;;;;7.25;5.45;;;;;;;19.80;64.17;101654.53;4957609;28;20085;-85
2023/05/20 07:07:51;;;;;;;9.75;5.82;;;;;;;19.79;61.92;101652.88;4989833;28;20462;-83
2023/05/20 07:10:17;;;;;;;8.25;5.05;;;;;;;19.84;62.30;101637.59;4989655;28;20557;-83
2023/05/20 07:12:42;;;;;;;8.52;5.43;;;;;;;19.92;60.24;101640.53;4989889;28;20466;-83
2023/05/20 07:15:08;;;;;;;7.80;4.93;;;;;;;19.97;59.18;101618.25;4973654;28;20049;-84
2023/05/20 07:17:34;;;;;;;7.45;4.88;;;;;;;20.17;59.28;101632.56;4989804;28;20030;-83
2023/05/20 07:19:59;;;;;;;9.27;5.57;;;;;;;20.15;59.19;101641.47;4989828;28;20112;-85
2023/05/20 07:22:25;;;;;;;10.35;5.47;;;;;;;20.21;59.32;101639.25;4957508;28;20076;-84
2023/05/20 07:24:50;;;;;;;9.40;4.97;;;;;;;20.26;59.28;101652.91;4973646;28;20034;-84
2023/05/20 07:27:16;;;;;;;11.57;5.53;;;;;;;20.34;58.85;101637.38;4989623;28;20022;-84
2023/05/20 07:29:41;;;;;;;10.40;5.20;;;;;;;20.46;57.39;101643.56;4973570;28;20030;-83
2023/05/20 07:32:07;;;;;;;8.50;5.10;;;;;;;20.44;56.71;101642.81;4989797;28;20087;-84
2023/05/20 07:34:33;;;;;;;6.97;4.47;;;;;;;20.58;55.95;101636.56;4989427;28;20054;-83
2023/05/20 07:36:58;;;;;;;6.30;4.20;;;;;;;20.76;55.24;101632.53;4991349;28;20051;-83
2023/05/20 07:39:23;;;;;;;6.07;4.20;;;;;;;20.60;54.42;101600.47;4977022;28;20033;-83
2023/05/20 07:41:49;;;;;;;7.05;4.40;;;;;;;20.94;54.44;101624.19;4976357;28;20080;-84
2023/05/20 07:44:14;;;;;;;6.85;4.35;;;;;;;21.16;53.61;101647.91;4992907;28;20030;-84
2023/05/20 07:46:58;;;;;;;5.85;3.70;;;;;;;21.32;52.88;101642.28;4993000;28;20507;-84
2023/05/20 07:49:24;;;;;;;7.20;3.60;;;;;;;21.41;52.13;101629.25;4992738;28;20435;-83
2023/05/20 07:51:49;;;;;;;6.60;4.45;;;;;;;21.39;50.82;101614.53;4992711;28;20030;-83
2023/05/20 07:54:15;;;;;;;7.05;4.22;;;;;;;21.49;51.75;101607.59;4992983;28;20476;-83
2023/05/20 07:56:40;;;;;;;8.35;4.10;;;;;;;21.73;52.04;101623.25;5008855;28;20031;-85
2023/05/20 07:59:05;;;;;;;9.75;5.25;;;;;;;21.80;53.53;101615.66;4976609;28;20023;-83
2023/05/20 08:01:31;;;;;;;8.82;5.70;;;;;;;21.95;53.88;101623.19;4976315;28;20034;-83
2023/05/20 08:03:57;;;;;;;7.50;5.00;;;;;;;21.77;54.70;101604.44;4992893;28;20033;-84
2023/05/20 08:06:25;;;;;;;7.85;5.53;;;;;;;21.90;55.01;101622.69;4976181;28;20415;-84
2023/05/20 08:08:53;;;;;;;9.02;5.80;;;;;;;22.14;54.47;101624.34;4992567;28;20471;-84
2023/05/20 08:11:20;;;;;;;9.30;5.68;;;;;;;22.15;53.59;101597.03;4992594;28;20579;-84
2023/05/20 08:13:46;;;;;;;7.88;5.47;;;;;;;22.40;53.61;101619.53;4976406;28;20110;-84
2023/05/20 08:16:11;;;;;;;9.68;5.78;;;;;;;22.27;53.42;101603.91;4976151;28;20121;-84
2023/05/20 08:18:37;;;;;;;8.80;5.70;;;;;;;22.47;53.17;101624.19;4960300;28;20092;-84
2023/05/20 08:21:03;;;;;;;7.55;5.25;;;;;;;22.54;53.39;101606.91;4976123;28;20408;-84
2023/05/20 08:23:28;;;;;;;7.63;5.50;;;;;;;22.55;52.24;101613.00;4992458;28;20033;-85
2023/05/20 08:25:54;;;;;;;7.13;5.20;;;;;;;22.58;53.23;101618.00;4993066;28;20030;-84
2023/05/20 08:28:20;;;;;;;8.38;5.70;;;;;;;22.70;52.78;101605.59;4992066;28;20045;-84
2023/05/20 08:30:47;;;;;;;12.15;5.03;;;;;;;22.83;52.30;101603.59;4992208;28;20476;-85
2023/05/20 08:33:13;;;;;;;8.65;5.47;;;;;;;23.00;52.33;101608.28;4976143;28;20109;-84
2023/05/20 08:35:39;;;;;;;8.98;5.35;;;;;;;23.01;52.43;101594.16;4991825;28;20050;-84
2023/05/20 08:38:05;;;;;;;11.98;5.57;;;;;;;23.01;52.57;101588.88;4975815;28;20500;-84
2023/05/20 08:40:33;;;;;;;9.40;5.10;;;;;;;23.22;52.80;101602.00;4976117;28;20037;-83
2023/05/20 08:43:00;;;;;;;9.60;5.88;;;;;;;23.21;52.19;101589.78;5008508;28;20030;-84
2023/05/20 08:45:27;;;;;;;7.45;5.07;;;;;;;23.28;51.05;101582.13;4992004;28;20037;-84
2023/05/20 08:47:52;;;;;;;7.57;5.45;;;;;;;23.44;51.29;101601.78;4991103;28;20061;-83
2023/05/20 08:50:18;;;;;;;10.13;5.75;;;;;;;23.52;51.09;101580.00;4992175;28;20042;-84
2023/05/20 08:52:45;;;;;;;7.07;4.97;;;;;;;23.74;51.24;101605.38;4975911;28;20487;-84
2023/05/20 08:55:25;;;;;;;8.15;5.50;;;;;;;23.92;51.15;101597.59;4959900;28;20384;-84
2023/05/20 08:57:53;;;;;;;10.60;5.55;;;;;;;24.01;49.00;101583.56;4992955;28;20034;-84
2023/05/20 09:00:19;;;;;;;7.78;5.30;;;;;;;24.02;49.61;101590.50;4975944;28;20030;-84
2023/05/20 09:02:45;;;;;;;6.35;4.85;;;;;;;24.20;49.27;101596.78;4975366;28;20030;-84
2023/05/20 09:05:10;;;;;;;7.82;5.50;;;;;;;24.17;49.65;101578.53;4991335;28;20038;-85
2023/05/20 09:07:36;;;;;;;7.63;4.80;;;;;;;24.30;48.06;101589.66;4991487;28;20022;-85
2023/05/20 09:10:01;;;;;;;9.93;5.38;;;;;;;24.35;48.73;101577.84;4991147;28;20030;-83
2023/05/20 09:12:27;;;;;;;10.18;5.68;;;;;;;24.60;47.89;101585.19;4975069;28;20034;-84
2023/05/20 09:14:52;;;;;;;8.77;5.28;;;;;;;24.58;47.49;101587.13;4959075;28;20022;-84
2023/05/20 09:17:18;;;;;;;6.85;4.75;;;;;;;24.55;47.06;101576.84;4974747;28;20038;-84
2023/05/20 09:19:43;;;;;;;6.72;4.70;;;;;;;24.73;48.00;101585.69;4958968;28;20040;-84
2023/05/20 09:22:08;;;;;;;9.00;5.10;;;;;;;24.81;47.28;101582.34;4958983;28;20030;-84
2023/05/20 09:24:34;;;;;;;6.10;4.35;;;;;;;24.79;47.05;101585.13;4991267;28;20408;-84
2023/05/20 09:26:59;;;;;;;7.53;4.50;;;;;;;24.89;46.93;101575.34;4991180;28;20041;-84
2023/05/20 09:29:25;;;;;;;8.32;4.47;;;;;;;25.19;47.12;101581.38;4958817;28;20081;-84
2023/05/20 09:31:51;;;;;;;7.35;4.80;;;;;;;25.02;45.33;101568.91;4990875;28;20034;-85
2023/05/20 09:34:16;;;;;;;6.30;4.43;;;;;;;25.22;44.58;101569.66;4974569;28;20031;-84
2023/05/20 09:36:43;;;;;;;6.32;4.55;;;;;;;25.21;43.28;101560.88;4990852;28;20069;-84
2023/05/20 09:39:13;;;;;;;8.25;4.60;;;;;;;25.23;43.46;101560.72;4974942;28;20030;-84
2023/05/20 09:41:56;;;;;;;6.05;4.18;;;;;;;25.40;40.52;101566.06;4959092;28;20033;-84
2023/05/20 09:44:22;;;;;;;10.55;4.05;;;;;;;25.42;40.83;101565.91;4993021;28;20488;-84
2023/05/20 09:46:48;;;;;;;6.50;4.10;;;;;;;25.60;40.80;101558.00;4990805;28;20026;-85
2023/05/20 09:49:14;;;;;;;7.28;4.80;;;;;;;25.68;40.03;101550.13;4974218;28;20041;-87
2023/05/20 09:51:39;;;;;;;6.70;4.32;;;;;;;25.77;40.06;101559.88;4974187;28;20042;-85
2023/05/20 09:54:07;;;;;;;9.43;4.38;;;;;;;25.77;40.10;101554.56;5006909;28;20030;-85
2023/05/20 09:56:33;;;;;;;6.68;4.28;;;;;;;25.66;41.12;101558.25;4958769;28;20400;-85
2023/05/20 09:58:59;;;;;;;9.77;4.47;;;;;;;25.73;41.16;101542.59;4989996;28;20415;-85
2023/05/20 10:01:24;;;;;;;5.88;4.28;;;;;;;25.80;40.20;101535.69;4973549;28;20089;-84
2023/05/20 10:03:51;;;;;;;8.55;4.25;;;;;;;25.94;39.82;101552.88;4974476;28;20518;-85
2023/05/20 10:06:26;;;;;;;8.05;4.32;;;;;;;25.94;40.12;101540.44;4958086;28;20033;-84
2023/05/20 10:09:09;;;;;;;6.28;4.40;;;;;;;25.82;40.10;101528.41;4991282;28;20038;-85
2023/05/20 10:11:36;;;;;;;6.38;4.45;;;;;;;26.02;40.41;101537.88;4989995;28;20034;-84
2023/05/20 10:14:17;;;;;;;6.63;4.78;;;;;;;26.19;41.50;101538.84;4990217;28;20108;-85
2023/05/20 10:17:08;;;;;;;5.28;4.07;;;;;;;26.29;41.30;101528.13;4991332;28;20034;-85
2023/05/20 10:19:34;;;;;;;7.43;4.82;;;;;;;26.48;40.13;101516.50;4991313;28;20026;-84
2023/05/20 10:22:00;;;;;;;6.13;4.00;;;;;;;26.57;38.40;101532.31;4990201;28;20046;-84
2023/05/20 10:24:44;;;;;;;5.95;3.88;;;;;;;26.68;38.88;101522.41;4990545;28;20037;-85
2023/05/20 10:27:11;;;;;;;7.40;4.50;;;;;;;26.69;38.87;101519.59;4974171;28;20459;-84
2023/05/20 10:29:50;;;;;;;6.82;4.40;;;;;;;26.74;38.78;101514.63;4973975;28;20514;-84
2023/05/20 10:32:25;;;;;;;6.65;4.15;;;;;;;26.72;38.56;101513.13;4990111;28;20157;-84
2023/05/20 10:34:51;;;;;;;6.72;4.25;;;;;;;26.58;39.29;101507.44;4990930;28;20030;-84
2023/05/20 10:37:26;;;;;;;6.53;3.97;;;;;;;26.63;38.88;101509.59;4973890;28;20054;-85
2023/05/20 10:39:51;;;;;;;5.43;3.90;;;;;;;26.82;38.88;101516.50;4973827;28;20030;-85
2023/05/20 10:42:26;;;;;;;5.93;4.15;;;;;;;26.80;37.44;101513.19;4973700;28;20081;-85
2023/05/20 10:44:52;;;;;;;9.93;4.60;;;;;;;26.73;38.25;101506.84;4973861;28;20031;-85
2023/05/20 10:47:17;;;;;;;7.90;4.05;;;;;;;26.77;37.47;101500.22;4973925;28;20034;-84
2023/05/20 10:49:44;;;;;;;6.63;4.45;;;;;;;26.71;37.21;101495.56;4957499;28;20105;-85
2023/05/20 10:52:10;;;;;;;5.60;4.22;;;;;;;26.68;37.91;101490.56;4990106;28;20114;-85
2023/05/20 10:54:42;;;;;;;6.63;4.10;;;;;;;26.78;38.55;101481.50;4989889;28;20389;-84
2023/05/20 10:57:10;;;;;;;9.25;4.00;;;;;;;26.57;38.66;101447.41;4991042;28;20037;-85
2023/05/20 10:59:36;;;;;;;8.35;4.70;;;;;;;26.88;38.75;101465.44;4989954;28;20034;-85
2023/05/20 11:02:01;;;;;;;5.53;4.07;;;;;;;26.91;38.23;101483.69;4957735;28;20116;-85
2023/05/20 11:04:27;;;;;;;8.90;4.03;;;;;;;26.63;38.65;101472.44;4957487;28;20484;-84
2023/05/20 11:06:54;;;;;;;4.93;3.92;;;;;;;26.59;38.01;101477.25;4973382;28;20105;-84
2023/05/20 11:09:19;;;;;;;9.32;4.35;;;;;;;26.46;37.96;101463.59;4992921;28;20026;-85
2023/05/20 11:11:45;;;;;;;5.07;3.92;;;;;;;26.63;39.18;101471.63;4961897;28;20093;-85
2023/05/20 11:14:13;;;;;;;6.30;4.20;;;;;;;26.76;39.28;101477.34;4977772;28;20026;-84
2023/05/20 11:16:41;;;;;;;6.20;4.15;;;;;;;26.72;38.28;101468.84;4993610;28;20165;-83
2023/05/20 11:19:08;;;;;;;4.90;3.97;;;;;;;26.73;39.32;101446.63;4977579;28;20030;-83